sensor_id;sensor_type;location;lat;lon;timestamp;P1;durP1;ratioP1;P2;durP2;ratioP2
83485;SDS011;73423;45.118;20.726;2023-11-19T00:01:25;9.80;;;5.50;;
83485;SDS011;73423;45.118;20.726;2023-11-19T00:11:47;7.70;;;3.92;;
83485;SDS011;73423;45.118;20.726;2023-11-19T00:21:48;9.25;;;4.63;;
83485;SDS011;73423;45.118;20.726;2023-11-19T00:31:49;10.53;;;4.50;;
83485;SDS011;73423;45.118;20.726;2023-11-19T00:41:50;7.67;;;4.43;;
83485;SDS011;73423;45.118;20.726;2023-11-19T00:51:52;7.25;;;4.32;;
83485;SDS011;73423;45.118;20.726;2023-11-19T01:01:53;6.47;;;4.13;;
83485;SDS011;73423;45.118;20.726;2023-11-19T01:11:54;7.67;;;4.17;;
83485;SDS011;73423;45.118;20.726;2023-11-19T01:21:55;7.78;;;4.32;;
83485;SDS011;73423;45.118;20.726;2023-11-19T01:31:57;9.83;;;4.57;;
83485;SDS011;73423;45.118;20.726;2023-11-19T01:41:58;7.17;;;4.17;;
83485;SDS011;73423;45.118;20.726;2023-11-19T01:51:59;7.80;;;4.90;;
83485;SDS011;73423;45.118;20.726;2023-11-19T02:02:01;7.75;;;3.92;;
83485;SDS011;73423;45.118;20.726;2023-11-19T02:12:02;7.27;;;4.10;;
83485;SDS011;73423;45.118;20.726;2023-11-19T02:22:04;8.47;;;3.93;;
83485;SDS011;73423;45.118;20.726;2023-11-19T02:32:06;8.65;;;4.53;;
83485;SDS011;73423;45.118;20.726;2023-11-19T02:42:10;14.60;;;6.20;;
83485;SDS011;73423;45.118;20.726;2023-11-19T02:52:11;8.03;;;5.10;;
83485;SDS011;73423;45.118;20.726;2023-11-19T03:02:13;7.40;;;4.10;;
83485;SDS011;73423;45.118;20.726;2023-11-19T03:12:16;13.47;;;4.97;;
83485;SDS011;73423;45.118;20.726;2023-11-19T03:22:18;11.90;;;6.60;;
83485;SDS011;73423;45.118;20.726;2023-11-19T03:32:19;10.18;;;5.30;;
83485;SDS011;73423;45.118;20.726;2023-11-19T03:42:20;10.32;;;4.65;;
83485;SDS011;73423;45.118;20.726;2023-11-19T03:52:21;10.53;;;5.70;;
83485;SDS011;73423;45.118;20.726;2023-11-19T04:02:24;11.67;;;6.60;;
83485;SDS011;73423;45.118;20.726;2023-11-19T04:12:28;8.70;;;4.45;;
83485;SDS011;73423;45.118;20.726;2023-11-19T04:22:29;10.87;;;5.23;;
83485;SDS011;73423;45.118;20.726;2023-11-19T04:32:30;8.10;;;4.80;;
83485;SDS011;73423;45.118;20.726;2023-11-19T04:42:32;8.75;;;5.18;;
83485;SDS011;73423;45.118;20.726;2023-11-19T04:52:33;8.67;;;4.77;;
83485;SDS011;73423;45.118;20.726;2023-11-19T05:02:34;11.23;;;5.50;;
83485;SDS011;73423;45.118;20.726;2023-11-19T05:12:35;8.50;;;5.47;;
83485;SDS011;73423;45.118;20.726;2023-11-19T05:22:36;7.88;;;4.95;;
83485;SDS011;73423;45.118;20.726;2023-11-19T05:32:38;9.47;;;5.30;;
83485;SDS011;73423;45.118;20.726;2023-11-19T05:42:39;13.00;;;7.17;;
83485;SDS011;73423;45.118;20.726;2023-11-19T05:52:41;16.52;;;8.68;;
83485;SDS011;73423;45.118;20.726;2023-11-19T06:02:42;14.53;;;7.27;;
83485;SDS011;73423;45.118;20.726;2023-11-19T06:12:44;12.83;;;6.80;;
83485;SDS011;73423;45.118;20.726;2023-11-19T06:22:47;35.38;;;15.20;;
83485;SDS011;73423;45.118;20.726;2023-11-19T06:32:48;55.40;;;23.00;;
83485;SDS011;73423;45.118;20.726;2023-11-19T06:42:49;15.33;;;7.87;;
83485;SDS011;73423;45.118;20.726;2023-11-19T06:52:53;11.13;;;6.40;;
83485;SDS011;73423;45.118;20.726;2023-11-19T07:02:54;18.98;;;8.90;;
83485;SDS011;73423;45.118;20.726;2023-11-19T07:12:56;16.67;;;9.73;;
83485;SDS011;73423;45.118;20.726;2023-11-19T07:22:58;19.70;;;10.03;;
83485;SDS011;73423;45.118;20.726;2023-11-19T07:32:59;19.00;;;9.60;;
83485;SDS011;73423;45.118;20.726;2023-11-19T07:43:00;17.40;;;8.90;;
83485;SDS011;73423;45.118;20.726;2023-11-19T07:53:01;18.03;;;9.43;;
83485;SDS011;73423;45.118;20.726;2023-11-19T08:03:05;24.05;;;11.50;;
83485;SDS011;73423;45.118;20.726;2023-11-19T08:13:06;18.47;;;10.93;;
83485;SDS011;73423;45.118;20.726;2023-11-19T08:23:08;22.03;;;10.77;;
83485;SDS011;73423;45.118;20.726;2023-11-19T08:33:09;33.70;;;14.40;;
83485;SDS011;73423;45.118;20.726;2023-11-19T08:43:10;13.43;;;7.72;;
83485;SDS011;73423;45.118;20.726;2023-11-19T08:53:11;14.27;;;7.73;;
83485;SDS011;73423;45.118;20.726;2023-11-19T09:03:12;14.20;;;8.77;;
83485;SDS011;73423;45.118;20.726;2023-11-19T09:13:14;13.50;;;7.93;;
83485;SDS011;73423;45.118;20.726;2023-11-19T09:23:15;10.80;;;7.03;;
83485;SDS011;73423;45.118;20.726;2023-11-19T09:33:16;11.53;;;6.83;;
83485;SDS011;73423;45.118;20.726;2023-11-19T09:43:18;8.77;;;6.00;;
83485;SDS011;73423;45.118;20.726;2023-11-19T09:53:19;13.27;;;8.23;;
83485;SDS011;73423;45.118;20.726;2023-11-19T10:03:21;11.20;;;7.50;;
83485;SDS011;73423;45.118;20.726;2023-11-19T10:13:27;13.32;;;8.07;;
83485;SDS011;73423;45.118;20.726;2023-11-19T10:23:29;10.53;;;7.47;;
83485;SDS011;73423;45.118;20.726;2023-11-19T10:33:30;10.32;;;7.63;;
83485;SDS011;73423;45.118;20.726;2023-11-19T10:43:31;13.60;;;8.47;;
83485;SDS011;73423;45.118;20.726;2023-11-19T10:53:45;9.07;;;6.33;;
83485;SDS011;73423;45.118;20.726;2023-11-19T11:03:46;22.15;;;10.43;;
83485;SDS011;73423;45.118;20.726;2023-11-19T11:13:48;20.47;;;10.37;;
83485;SDS011;73423;45.118;20.726;2023-11-19T11:55:14;11.83;;;7.17;;
83485;SDS011;73423;45.118;20.726;2023-11-19T12:05:15;11.90;;;5.25;;
83485;SDS011;73423;45.118;20.726;2023-11-19T12:15:16;13.73;;;7.17;;
83485;SDS011;73423;45.118;20.726;2023-11-19T12:25:20;11.17;;;6.10;;
83485;SDS011;73423;45.118;20.726;2023-11-19T12:35:22;16.37;;;7.47;;
83485;SDS011;73423;45.118;20.726;2023-11-19T12:45:24;11.75;;;6.13;;
83485;SDS011;73423;45.118;20.726;2023-11-19T13:05:32;12.80;;;6.07;;
83485;SDS011;73423;45.118;20.726;2023-11-19T13:15:34;18.35;;;8.20;;
83485;SDS011;73423;45.118;20.726;2023-11-19T13:25:36;11.53;;;6.00;;
83485;SDS011;73423;45.118;20.726;2023-11-19T13:35:37;16.90;;;7.97;;
83485;SDS011;73423;45.118;20.726;2023-11-19T13:45:41;8.15;;;4.80;;
83485;SDS011;73423;45.118;20.726;2023-11-19T13:55:42;27.23;;;12.43;;
83485;SDS011;73423;45.118;20.726;2023-11-19T14:05:44;32.77;;;12.83;;
83485;SDS011;73423;45.118;20.726;2023-11-19T14:15:45;13.47;;;6.00;;
83485;SDS011;73423;45.118;20.726;2023-11-19T14:25:47;12.05;;;7.45;;
83485;SDS011;73423;45.118;20.726;2023-11-19T14:35:48;14.60;;;8.77;;
83485;SDS011;73423;45.118;20.726;2023-11-19T14:45:50;26.97;;;13.13;;
83485;SDS011;73423;45.118;20.726;2023-11-19T14:55:51;55.17;;;21.73;;
83485;SDS011;73423;45.118;20.726;2023-11-19T15:05:54;61.40;;;26.00;;
83485;SDS011;73423;45.118;20.726;2023-11-19T15:15:55;64.87;;;28.13;;
83485;SDS011;73423;45.118;20.726;2023-11-19T15:25:57;77.30;;;32.47;;
83485;SDS011;73423;45.118;20.726;2023-11-19T15:35:58;111.95;;;43.28;;
83485;SDS011;73423;45.118;20.726;2023-11-19T15:46:01;146.47;;;58.60;;
83485;SDS011;73423;45.118;20.726;2023-11-19T15:56:02;198.03;;;80.17;;
83485;SDS011;73423;45.118;20.726;2023-11-19T16:06:04;294.08;;;117.40;;
83485;SDS011;73423;45.118;20.726;2023-11-19T16:16:05;266.73;;;111.67;;
83485;SDS011;73423;45.118;20.726;2023-11-19T16:26:06;102.53;;;42.40;;
83485;SDS011;73423;45.118;20.726;2023-11-19T16:36:08;60.20;;;27.13;;
83485;SDS011;73423;45.118;20.726;2023-11-19T16:46:10;65.63;;;27.90;;
83485;SDS011;73423;45.118;20.726;2023-11-19T16:56:11;79.63;;;30.80;;
83485;SDS011;73423;45.118;20.726;2023-11-19T17:06:13;41.67;;;19.98;;
83485;SDS011;73423;45.118;20.726;2023-11-19T17:16:16;66.95;;;24.42;;
83485;SDS011;73423;45.118;20.726;2023-11-19T17:26:18;42.33;;;19.40;;
83485;SDS011;73423;45.118;20.726;2023-11-19T17:36:19;32.20;;;17.30;;
83485;SDS011;73423;45.118;20.726;2023-11-19T17:46:20;37.85;;;18.48;;
83485;SDS011;73423;45.118;20.726;2023-11-19T17:56:22;24.23;;;12.33;;
83485;SDS011;73423;45.118;20.726;2023-11-19T18:06:25;24.17;;;11.03;;
83485;SDS011;73423;45.118;20.726;2023-11-19T18:16:26;18.20;;;11.63;;
83485;SDS011;73423;45.118;20.726;2023-11-19T18:26:27;18.33;;;11.07;;
83485;SDS011;73423;45.118;20.726;2023-11-19T18:36:33;29.03;;;14.93;;
83485;SDS011;73423;45.118;20.726;2023-11-19T18:46:35;29.67;;;15.70;;
83485;SDS011;73423;45.118;20.726;2023-11-19T18:56:36;33.55;;;16.40;;
83485;SDS011;73423;45.118;20.726;2023-11-19T19:06:37;33.53;;;16.23;;
83485;SDS011;73423;45.118;20.726;2023-11-19T19:16:39;29.37;;;14.47;;
83485;SDS011;73423;45.118;20.726;2023-11-19T19:26:41;83.97;;;24.48;;
83485;SDS011;73423;45.118;20.726;2023-11-19T19:36:42;63.97;;;22.30;;
83485;SDS011;73423;45.118;20.726;2023-11-19T19:46:43;31.90;;;15.83;;
83485;SDS011;73423;45.118;20.726;2023-11-19T19:56:44;41.58;;;18.08;;
83485;SDS011;73423;45.118;20.726;2023-11-19T20:06:46;32.77;;;16.57;;
83485;SDS011;73423;45.118;20.726;2023-11-19T20:16:49;48.73;;;20.80;;
83485;SDS011;73423;45.118;20.726;2023-11-19T20:26:51;37.80;;;18.15;;
83485;SDS011;73423;45.118;20.726;2023-11-19T20:36:54;42.90;;;20.60;;
83485;SDS011;73423;45.118;20.726;2023-11-19T20:46:57;75.63;;;31.00;;
83485;SDS011;73423;45.118;20.726;2023-11-19T20:57:00;94.87;;;38.47;;
83485;SDS011;73423;45.118;20.726;2023-11-19T21:07:01;53.03;;;26.70;;
83485;SDS011;73423;45.118;20.726;2023-11-19T21:17:04;44.33;;;23.00;;
83485;SDS011;73423;45.118;20.726;2023-11-19T21:27:06;32.27;;;16.27;;
83485;SDS011;73423;45.118;20.726;2023-11-19T21:37:08;34.50;;;17.55;;
83485;SDS011;73423;45.118;20.726;2023-11-19T21:47:09;34.23;;;15.60;;
83485;SDS011;73423;45.118;20.726;2023-11-19T21:57:11;30.93;;;15.13;;
83485;SDS011;73423;45.118;20.726;2023-11-19T22:07:12;34.83;;;16.40;;
83485;SDS011;73423;45.118;20.726;2023-11-19T22:17:13;35.53;;;17.33;;
83485;SDS011;73423;45.118;20.726;2023-11-19T22:27:16;29.93;;;15.20;;
83485;SDS011;73423;45.118;20.726;2023-11-19T22:37:17;37.20;;;18.33;;
83485;SDS011;73423;45.118;20.726;2023-11-19T22:47:18;28.33;;;14.15;;
83485;SDS011;73423;45.118;20.726;2023-11-19T22:57:19;31.97;;;15.50;;
83485;SDS011;73423;45.118;20.726;2023-11-19T23:07:21;30.60;;;15.37;;
83485;SDS011;73423;45.118;20.726;2023-11-19T23:17:22;33.97;;;16.13;;
83485;SDS011;73423;45.118;20.726;2023-11-19T23:27:27;23.03;;;12.47;;
83485;SDS011;73423;45.118;20.726;2023-11-19T23:37:28;31.40;;;15.07;;
83485;SDS011;73423;45.118;20.726;2023-11-19T23:47:29;25.25;;;14.68;;
83485;SDS011;73423;45.118;20.726;2023-11-19T23:57:30;25.17;;;12.82;;
